Redwood City, CA (94065)

3:03 AM PDT on July 31, 2016 (GMT -0700)
Neighborhood One | | Change Station

Elev 3 ft 37.56 °N, 122.26 °W | Updated 350 days ago

Cloudy
Cloudy
59 °F
Feels Like 59 °F
N
3
Wind Variable Wind from NNW
Gusts mph

Today
High -- | Low -- °F
--% Chance of Precip.
Yesterday
High -- | Low -- °F
Precip. -- in
Pressure 29.85 in
Visibility 10.0 miles
Clouds Overcast 1000 ft
Dew Point 55 °F
Humidity 85%
Rainfall in
Snow Depth Not available.
6:12 AM 8:17 PM
Waning Crescent, 7% visible
METAR KSQL 310955Z AUTO 34003KT 10SM OVC010 15/13 A2985 RMK AO2
Pressure 29.85 in
Visibility 10.0 miles
Clouds Overcast 1000 ft
Dew Point 55 °F
Humidity 85%
Rainfall in
Snow Depth Not available.
6:12 AM 8:17 PM
Waning Crescent, 7% visible
METAR KSQL 310955Z AUTO 34003KT 10SM OVC010 15/13 A2985 RMK AO2

10-Day Weather Forecast

Almanac

Astronomy

Jul. 31, 2016 Rise Set
Actual Time
Civil Twilight
Nautical Twilight
Astronomical Twilight
Moon
Length of Visible Light
Length of Day
Tomorrow will be .
, % of the Moon is Illuminated

Today's Extremes

State Highs State Lows

Community

WunderPhotos

Upload Photos

1,928,778 photos uploaded!

WunderBlog® & News

Nearby

Air Quality

  Air Quality AQ Index Pollutant
Not available.

Snow Depth

Station Depth Elevation

Earthquake Activity

City Distance Mag. Time & Date
Minimum magnitude displayed is 2.5.

Coastal Water Temperatures

Place Temperature

Stations

Nearby Weather Stations

Station Location Temp. Windchill Dew Point Humidity Wind Precip. Elev Updated Type
                   

Watches & Warnings

There are currently no watches in effect.